createdAt,value
2019-05-19T17:03:36.203Z,49.95
2019-05-19T17:05:11.253Z,48.92
2019-05-19T17:07:39.706Z,49.63
2019-05-19T17:10:09.067Z,50.83
2019-05-19T17:12:37.467Z,54.03
2019-05-19T17:15:05.890Z,52.88
2019-05-19T17:17:34.208Z,53.93
2019-05-19T17:20:07.204Z,54.45
2019-05-19T17:22:35.552Z,59.85
2019-05-19T17:25:05.823Z,53.35
2019-05-19T17:27:34.144Z,58.05
2019-05-19T17:30:02.482Z,56.95
2019-05-19T17:32:30.772Z,57.45
2019-05-19T17:34:59.103Z,57.60
2019-05-19T17:37:27.520Z,59.67
2019-05-19T17:39:55.848Z,56.95
2019-05-19T17:42:27.290Z,62.10
2019-05-19T17:44:55.962Z,61.48
2019-05-19T17:47:24.298Z,64.45
2019-05-19T17:49:52.605Z,63.95
2019-05-19T17:52:21.124Z,61.63
2019-05-19T17:54:49.450Z,65.03
2019-05-19T17:57:17.839Z,64.67
2019-05-19T18:02:36.218Z,57.83
2019-05-19T18:05:05.001Z,65.00
2019-05-19T18:07:33.355Z,67.65
2019-05-19T18:10:01.801Z,62.43
2019-05-19T18:12:30.247Z,65.67
2019-05-19T18:14:58.541Z,67.80
2019-05-19T18:17:26.894Z,68.07
2019-05-19T18:19:55.308Z,71.15
2019-05-19T18:22:23.656Z,69.43
2019-05-19T18:24:52.367Z,66.17
2019-05-19T18:27:20.962Z,63.48
2019-05-19T18:29:49.293Z,68.78
2019-05-19T18:32:17.952Z,69.37
2019-05-19T18:34:46.742Z,68.52
2019-05-19T18:37:15.101Z,70.87
2019-05-19T18:39:43.918Z,71.85
2019-05-19T18:42:12.310Z,71.87
2019-05-19T18:44:40.598Z,70.67
2019-05-19T18:47:08.898Z,72.78
2019-05-19T18:49:37.236Z,70.32
2019-05-19T18:52:05.803Z,69.47
2019-05-19T18:54:34.102Z,69.60
2019-05-19T18:57:02.412Z,72.32
2019-05-19T18:59:30.721Z,69.50
2019-05-19T19:01:59.455Z,70.78
2019-05-19T19:04:27.863Z,73.52
2019-05-19T19:06:56.237Z,69.62
2019-05-19T19:09:24.881Z,77.97
2019-05-19T19:11:53.295Z,75.65
2019-05-19T19:14:21.665Z,74.17
2019-05-19T19:16:50.068Z,79.40
2019-05-19T19:19:18.505Z,77.97
2019-05-19T19:21:46.905Z,76.77
2019-05-19T19:24:15.666Z,78.30
2019-05-19T19:26:44.077Z,81.02
2019-05-19T19:29:12.449Z,76.37
2019-05-19T19:31:48.214Z,78.52
2019-05-19T19:34:10.918Z,77.72
2019-05-19T19:36:39.300Z,75.08
2019-05-19T19:39:07.707Z,77.82
2019-05-19T19:41:36.379Z,75.45
2019-05-19T19:44:05.152Z,77.12
2019-05-19T19:46:33.572Z,73.30
2019-05-19T19:49:02.007Z,76.53
2019-05-19T19:51:30.404Z,74.67
2019-05-19T19:53:58.833Z,75.80
2019-05-19T19:56:27.253Z,78.72
2019-05-19T19:58:56.094Z,79.87
2019-05-19T20:01:24.505Z,78.17
2019-05-19T20:03:52.977Z,78.37
2019-05-19T20:06:21.356Z,76.33
2019-05-19T20:08:49.718Z,84.65
2019-05-19T20:11:18.110Z,86.50
2019-05-19T20:13:46.421Z,85.35
2019-05-19T20:16:14.787Z,79.90
2019-05-19T20:18:43.183Z,86.97
2019-05-19T20:21:11.620Z,80.47
2019-05-19T20:23:39.917Z,80.65
2019-05-19T20:26:08.257Z,78.17
2019-05-19T20:28:36.621Z,73.85
2019-05-19T20:31:05.046Z,70.37
2019-05-19T20:33:33.615Z,76.72
2019-05-19T20:36:02.015Z,68.62
2019-05-19T20:38:30.391Z,65.70
2019-05-19T20:40:58.792Z,69.25
2019-05-19T20:43:27.126Z,72.15
2019-05-19T20:45:55.485Z,78.70
2019-05-19T20:48:23.857Z,80.25
2019-05-19T20:50:52.188Z,83.58
2019-05-19T20:53:20.553Z,79.92
2019-05-19T20:55:48.938Z,75.78
2019-05-19T20:58:17.310Z,70.30
2019-05-19T21:00:50.405Z,67.70
2019-05-19T21:03:15.731Z,68.97
2019-05-19T21:05:44.102Z,70.62
2019-05-19T21:08:12.503Z,74.20
2019-05-19T21:10:40.946Z,67.12
2019-05-19T21:13:09.343Z,69.35
2019-05-19T21:15:37.753Z,69.72
2019-05-19T21:18:06.284Z,71.60
2019-05-19T21:20:34.694Z,71.50
2019-05-19T21:23:03.096Z,66.62
2019-05-19T21:25:31.511Z,66.23
2019-05-19T21:27:59.931Z,65.52
2019-05-19T21:30:28.330Z,68.00
2019-05-19T21:32:56.737Z,68.72
2019-05-19T21:35:25.141Z,69.42
2019-05-19T21:37:53.521Z,68.75
2019-05-19T21:40:21.919Z,68.33
2019-05-19T21:42:50.225Z,74.50
2019-05-19T21:45:18.514Z,73.97
2019-05-19T21:47:46.881Z,67.97
2019-05-19T21:50:15.167Z,72.58
2019-05-19T21:52:43.453Z,70.35
2019-05-19T21:55:11.948Z,70.78
2019-05-19T21:57:40.311Z,72.08
2019-05-19T22:00:09.863Z,67.25
2019-05-19T22:02:38.243Z,68.17
2019-05-19T22:05:06.537Z,63.40
2019-05-19T22:07:42.567Z,66.35
2019-05-19T22:10:10.863Z,64.30
2019-05-19T22:12:39.233Z,66.00
2019-05-19T22:15:09.527Z,66.62
2019-05-19T22:17:38.090Z,64.82
2019-05-19T22:20:06.866Z,64.40
2019-05-19T22:22:35.247Z,66.77
2019-05-19T22:25:04.588Z,63.33
2019-05-19T22:27:32.960Z,63.33
2019-05-19T22:30:01.438Z,61.65
2019-05-19T22:32:30.098Z,58.70
2019-05-19T22:34:58.391Z,57.83
2019-05-19T22:37:26.782Z,64.37
2019-05-19T22:39:55.110Z,58.83
2019-05-19T22:42:23.700Z,61.60
2019-05-19T22:44:52.276Z,60.30
2019-05-19T22:47:20.574Z,59.30
2019-05-19T22:49:48.941Z,61.20
2019-05-19T22:52:17.319Z,59.30
2019-05-19T22:54:45.956Z,58.95
2019-05-19T22:57:14.309Z,57.50
2019-05-19T22:59:42.648Z,55.23
2019-05-19T23:02:11.003Z,56.77
2019-05-19T23:04:39.370Z,56.37
2019-05-19T23:07:07.756Z,55.55
2019-05-19T23:09:36.125Z,55.20
2019-05-19T23:12:04.490Z,55.65
2019-05-19T23:14:32.803Z,53.70
2019-05-19T23:17:01.096Z,51.65
2019-05-19T23:19:29.462Z,52.85
2019-05-19T23:21:58.063Z,51.33
2019-05-19T23:24:26.425Z,57.85
2019-05-19T23:26:54.800Z,53.28
2019-05-19T23:29:23.210Z,54.05
2019-05-19T23:32:04.963Z,53.98
2019-05-19T23:34:21.614Z,53.92
2019-05-19T23:36:49.950Z,49.48
2019-05-19T23:39:18.313Z,49.97
2019-05-19T23:41:46.610Z,51.08
2019-05-19T23:44:14.931Z,44.45
2019-05-19T23:46:43.221Z,47.43
2019-05-19T23:49:11.911Z,45.17
2019-05-19T23:51:40.312Z,45.12
2019-05-19T23:54:08.697Z,42.00
2019-05-19T23:56:37.067Z,44.10
2019-05-19T23:59:05.462Z,45.10
